Flight Track Log - Related Links

Times and Time Zones

All times are in EDT time to prevent confusion due to time zone crossing. See the LXJ342 flight status page for this flight to view local times or setup timezone preferences in your user account.

Time Position Orientation Groundspeed Altitude Reporting Facility
EDT Latitude Longitude Course Direction KTS MPH feet Rate Location/Type
Wed 01:11:36 PM 40.8833 -74.0333 339° North 182 209 2,000  Level New York TRACON
Wed 01:12:30 PM 40.9167 -74.0500 339° North 223 257 2,200 1,053 Climbing New York TRACON
Wed 01:13:30 PM 40.9000 -74.1333 255° West 242 278 4,000 2,250 Climbing New York TRACON
Wed 01:14:30 PM 40.8833 -74.2333 258° West 275 316 6,700 2,650 Climbing New York TRACON
Wed 01:15:30 PM 40.8500 -74.3333 246° West 298 343 9,300 2,550 Climbing New York TRACON
Wed 01:16:30 PM 40.8333 -74.4500 259° West 324 373 11,800 2,419 Climbing New York TRACON
Wed 01:18:41 PM 40.7711 -74.7031 252° West 343 395 17,000 1,906 Climbing New York Center
Wed 01:19:42 PM 40.7422 -74.8219 252° West 368 423 17,900 1,190 Climbing New York Center
Wed 01:20:42 PM 40.7078 -74.9706 253° West 385 443 19,400 1,388 Climbing New York Center
Wed 01:21:43 PM 40.6675 -75.1075 249° West 396 456 20,700 1,373 Climbing New York Center
Wed 01:22:40 PM 40.6103 -75.2406 241° Southwest 411 473 22,100 1,436 Climbing New York Center
Wed 01:23:40 PM 40.5489 -75.3731 239° Southwest 422 486 23,500 1,240 Climbing New York Center
Wed 01:24:41 PM 40.4875 -75.5056 239° Southwest 428 493 24,600 1,041 Climbing New York Center
Wed 01:25:41 PM 40.4278 -75.6406 240° Southwest 433 498 25,600 942 Climbing New York Center
Wed 01:26:42 PM 40.3636 -75.7775 238° Southwest 433 498 26,500 857 Climbing New York Center
Wed 01:27:40 PM 40.3131 -75.8883 239° Southwest 438 504 27,300 966 Climbing New York Center
Wed 01:28:40 PM 40.2375 -76.0406 237° Southwest 443 510 28,400 1,091 Climbing New York Center
Wed 01:29:41 PM 40.1703 -76.1903 240° Southwest 443 510 29,500 1,036 Climbing New York Center
Wed 01:31:28 PM 40.0544 -76.4397 239° Southwest 430 495 31,300 982 Climbing Washington Center
Wed 01:32:26 PM 39.9908 -76.5692 237° Southwest 446 513 32,200 915 Climbing Washington Center
Wed 01:33:26 PM 39.9231 -76.7169 239° Southwest 469 540 33,100 1,041 Climbing Washington Center
Wed 01:34:27 PM 39.8486 -76.8753 239° Southwest 469 540 34,300 1,328 Climbing Washington Center
Wed 01:35:28 PM 39.7803 -77.0144 237° Southwest 469 540 35,800 1,261 Climbing Washington Center
Wed 01:36:26 PM 39.7139 -77.1561 239° Southwest 469 540 36,800 763 Climbing Washington Center
Wed 01:37:26 PM 39.6475 -77.2975 239° Southwest 464 534 37,300 500 Climbing Washington Center
Wed 01:38:26 PM 39.5786 -77.4411 238° Southwest 464 534 37,800 347 Climbing Washington Center
Wed 01:39:27 PM 39.5117 -77.5847 239° Southwest 464 534 38,000 99 Climbing Washington Center
Wed 01:40:27 PM 39.4425 -77.7306 238° Southwest 464 534 38,000  Level Washington Center
Wed 01:41:28 PM 39.3731 -77.8817 239° Southwest 470 541 38,000  Level Washington Center
Wed 01:42:28 PM 39.3117 -78.0325 242° Southwest 475 547 38,000  Level Washington Center
Wed 01:43:26 PM 39.2503 -78.1833 242° Southwest 475 547 38,000  Level Washington Center
Wed 01:44:27 PM 39.1928 -78.3339 244° Southwest 480 552 38,000  Level Washington Center
Wed 01:45:27 PM 39.1328 -78.4869 243° Southwest 480 552 38,000  Level Washington Center
Wed 01:46:28 PM 39.0708 -78.6317 241° Southwest 475 547 38,000  Level Washington Center
Wed 01:47:28 PM 39.0131 -78.7786 243° Southwest 470 541 38,000  Level Washington Center
Wed 01:48:26 PM 38.9547 -78.9258 243° Southwest 465 535 38,000  Level Washington Center
Wed 01:49:27 PM 38.8944 -79.0697 242° Southwest 465 535 38,000  Level Washington Center
Wed 01:50:28 PM 38.8378 -79.2189 244° Southwest 465 535 38,000  Level Washington Center
Wed 01:51:28 PM 38.8100 -79.3800 258° West 459 528 38,000 100 Level Washington Center
Wed 01:52:28 PM 38.7797 -79.5411 256° West 459 528 38,200 396 Climbing Washington Center
Wed 01:55:00 PM 38.7100 -79.9147 257° West 448 516 39,400 505 Climbing Indianapolis Center
Wed 01:56:02 PM 38.6761 -80.0978 257° West 441 507 40,000 290 Climbing Indianapolis Center
Wed 01:57:04 PM 38.6475 -80.2486 256° West 436 502 40,000  Level Indianapolis Center
Wed 01:58:06 PM 38.6183 -80.3989 256° West 434 499 40,000  Level Indianapolis Center
Wed 01:59:07 PM 38.5914 -80.5461 257° West 428 493 40,000  Level Indianapolis Center
Wed 02:00:09 PM 38.5622 -80.6947 256° West 431 496 40,000  Level Indianapolis Center
Wed 02:01:11 PM 38.5344 -80.8419 256° West 427 491 40,000  Level Indianapolis Center
Wed 02:02:13 PM 38.5053 -80.9894 256° West 428 493 40,000  Level Indianapolis Center
Wed 02:03:15 PM 38.4758 -81.1350 256° West 423 487 40,000  Level Indianapolis Center
Wed 02:04:17 PM 38.4411 -81.3114 256° West 423 487 40,000  Level Indianapolis Center
Wed 02:05:19 PM 38.4117 -81.4581 256° West 422 486 40,000  Level Indianapolis Center
Wed 02:06:21 PM 38.3828 -81.6050 256° West 423 487 40,000  Level Indianapolis Center
Wed 02:07:23 PM 38.3539 -81.7497 256° West 420 483 40,000  Level Indianapolis Center
Wed 02:08:24 PM 38.3161 -81.8903 251° West 420 483 40,000  Level Indianapolis Center
Wed 02:09:26 PM 38.2778 -82.0300 251° West 416 479 40,000  Level Indianapolis Center
Wed 02:10:28 PM 38.2386 -82.1667 250° West 411 473 40,000  Level Indianapolis Center
Wed 02:11:30 PM 38.1992 -82.3031 250° West 411 473 40,000  Level Indianapolis Center
Wed 02:12:32 PM 38.1600 -82.4403 250° West 411 473 40,000  Level Indianapolis Center
Wed 02:13:34 PM 38.1169 -82.5908 250° West 413 475 40,000  Level Indianapolis Center
Wed 02:14:36 PM 38.0786 -82.7264 250° West 410 472 40,000  Level Indianapolis Center
Wed 02:15:37 PM 38.0322 -82.8872 250° West 414 476 40,000  Level Indianapolis Center
Wed 02:16:39 PM 37.9933 -83.0244 250° West 415 478 40,000  Level Indianapolis Center
Wed 02:17:41 PM 37.9519 -83.1600 249° West 414 476 40,000  Level Indianapolis Center
Wed 02:18:43 PM 37.9122 -83.2981 250° West 418 481 40,000  Level Indianapolis Center
Wed 02:19:45 PM 37.8714 -83.4353 249° West 416 479 40,000  Level Indianapolis Center
Wed 02:20:47 PM 37.8231 -83.5975 249° West 422 486 40,000  Level Indianapolis Center
Wed 02:21:49 PM 37.7822 -83.7344 249° West 419 482 40,000  Level Indianapolis Center
Wed 02:22:51 PM 37.7406 -83.8717 249° West 420 483 40,000  Level Indianapolis Center
Wed 02:23:53 PM 37.6997 -84.0064 249° West 411 473 40,000  Level Indianapolis Center
Wed 02:24:55 PM 37.6586 -84.1431 249° West 415 478 40,000  Level Indianapolis Center
Wed 02:25:57 PM 37.6103 -84.2983 249° West 409 471 40,000  Level Indianapolis Center
Wed 02:26:59 PM 37.5697 -84.4317 249° West 406 467 40,000  Level Indianapolis Center
Wed 02:28:01 PM 37.5278 -84.5661 249° West 412 474 40,000  Level Indianapolis Center
Wed 02:29:03 PM 37.4875 -84.6994 249° West 407 468 40,000  Level Indianapolis Center
Wed 02:30:05 PM 37.4456 -84.8319 248° West 407 468 40,000  Level Indianapolis Center
Wed 02:31:07 PM 37.4044 -84.9653 249° West 407 468 40,000  Level Indianapolis Center
Wed 02:32:09 PM 37.3550 -85.1197 248° West 409 471 40,000  Level Indianapolis Center
Wed 02:33:11 PM 37.3142 -85.2533 249° West 409 471 40,000  Level Indianapolis Center
Wed 02:34:13 PM 37.2711 -85.3856 248° West 409 471 40,000  Level Indianapolis Center
Wed 02:35:15 PM 37.2250 -85.5317 248° West 411 473 40,000  Level Indianapolis Center
Wed 02:36:17 PM 37.1828 -85.6636 248° West 407 468 40,000  Level Indianapolis Center
Wed 02:36:45 PM 37.1622 -85.7317 249° West 404 465 40,000  Level Memphis Center
Wed 02:37:45 PM 37.1211 -85.8589 248° West 399 459 40,000  Level Memphis Center
Wed 02:38:45 PM 37.0781 -85.9914 248° West 399 459 40,000  Level Memphis Center
Wed 02:39:45 PM 37.0403 -86.1053 247° West 399 459 40,000  Level Memphis Center
Wed 02:40:45 PM 36.9986 -86.2294 247° West 404 465 40,000  Level Memphis Center
Wed 02:41:45 PM 36.9550 -86.3642 248° West 404 465 40,000  Level Memphis Center
Wed 02:42:45 PM 36.9133 -86.4908 248° West 404 465 40,000  Level Memphis Center
Wed 02:43:45 PM 36.8672 -86.6200 246° West 404 465 40,000  Level Memphis Center
Wed 02:44:45 PM 36.8211 -86.7492 246° West 404 465 40,000  Level Memphis Center
Wed 02:45:45 PM 36.7725 -86.8783 245° Southwest 404 465 40,000  Level Memphis Center
Wed 02:46:45 PM 36.7261 -87.0072 246° West 404 465 40,000  Level Memphis Center
Wed 02:47:45 PM 36.6794 -87.1383 246° West 404 465 40,000  Level Memphis Center
Wed 02:48:45 PM 36.6308 -87.2672 245° Southwest 404 465 40,000  Level Memphis Center
Wed 02:49:45 PM 36.5800 -87.4111 246° West 410 472 40,000  Level Memphis Center
Wed 02:50:45 PM 36.5311 -87.5447 246° West 410 472 40,000  Level Memphis Center
Wed 02:51:45 PM 36.4936 -87.6467 245° Southwest 410 472 40,000  Level Memphis Center
Wed 02:52:45 PM 36.4344 -87.8033 245° Southwest 410 472 40,000  Level Memphis Center
Wed 02:53:45 PM 36.3914 -87.9336 248° West 415 478 40,000  Level Memphis Center
Wed 02:54:45 PM 36.3353 -88.0642 242° Southwest 415 478 40,000  Level Memphis Center
Wed 02:55:45 PM 36.2814 -88.1917 242° Southwest 420 483 40,000  Level Memphis Center
Wed 02:56:45 PM 36.2397 -88.3189 248° West 421 484 40,000  Level Memphis Center
Wed 02:57:45 PM 36.1878 -88.4514 244° Southwest 421 484 40,000  Level Memphis Center
Wed 02:58:45 PM 36.1375 -88.5786 244° Southwest 421 484 40,000  Level Memphis Center
Wed 02:59:45 PM 36.0850 -88.7081 243° Southwest 426 490 40,000  Level Memphis Center
Wed 03:00:45 PM 36.0344 -88.8375 244° Southwest 426 490 40,000  Level Memphis Center
Wed 03:01:45 PM 35.9839 -88.9667 244° Southwest 426 490 40,000  Level Memphis Center
Wed 03:02:45 PM 35.9333 -89.0983 245° Southwest 426 490 40,000  Level Memphis Center
Wed 03:03:45 PM 35.8844 -89.2297 245° Southwest 426 490 40,000  Level Memphis Center
Wed 03:04:45 PM 35.8314 -89.3583 243° Southwest 426 490 40,000  Level Memphis Center
Wed 03:05:45 PM 35.7803 -89.4894 244° Southwest 426 490 40,000  Level Memphis Center
Wed 03:06:45 PM 35.7289 -89.6181 244° Southwest 426 490 40,000  Level Memphis Center
Wed 03:07:45 PM 35.6858 -89.7436 247° West 418 481 40,000  Level Memphis Center
Wed 03:08:45 PM 35.6364 -89.8742 245° Southwest 418 481 40,000  Level Memphis Center
Wed 03:09:45 PM 35.5825 -90.0047 243° Southwest 423 487 40,000  Level Memphis Center
Wed 03:10:45 PM 35.5308 -90.1350 244° Southwest 423 487 40,000  Level Memphis Center
Wed 03:11:45 PM 35.4767 -90.2703 244° Southwest 423 487 40,000  Level Memphis Center
Wed 03:12:45 PM 35.4286 -90.3875 243° Southwest 429 494 40,000  Level Memphis Center
Wed 03:13:45 PM 35.3744 -90.5200 243° Southwest 434 499 40,000  Level Memphis Center
Wed 03:14:45 PM 35.3219 -90.6497 244° Southwest 434 499 40,000  Level Memphis Center
Wed 03:15:45 PM 35.2675 -90.7844 244° Southwest 434 499 40,000  Level Memphis Center
Wed 03:16:45 PM 35.2128 -90.9161 243° Southwest 439 505 40,000  Level Memphis Center
Wed 03:17:45 PM 35.1578 -91.0506 243° Southwest 439 505 40,000  Level Memphis Center
Wed 03:18:45 PM 35.1006 -91.1844 242° Southwest 448 516 40,000  Level Memphis Center
Wed 03:19:45 PM 35.0456 -91.3183 243° Southwest 448 516 40,000  Level Memphis Center
Wed 03:20:45 PM 34.9836 -91.4672 243° Southwest 441 507 40,000  Level Memphis Center
Wed 03:21:45 PM 34.9261 -91.6008 242° Southwest 446 513 40,000  Level Memphis Center
Wed 03:22:45 PM 34.8683 -91.7342 242° Southwest 446 513 40,000  Level Memphis Center
Wed 03:23:45 PM 34.8106 -91.8672 242° Southwest 446 513 40,000  Level Memphis Center
Wed 03:24:45 PM 34.7544 -92.0028 243° Southwest 446 513 40,000  Level Memphis Center
Wed 03:25:45 PM 34.7050 -92.1153 242° Southwest 446 513 40,000  Level Memphis Center
Wed 03:26:45 PM 34.6633 -92.2608 251° West 446 513 40,000  Level Memphis Center
Wed 03:27:45 PM 34.6236 -92.4014 251° West 446 513 40,000  Level Memphis Center
Wed 03:28:45 PM 34.5836 -92.5417 251° West 446 513 40,000  Level Memphis Center
Wed 03:29:45 PM 34.5456 -92.6844 252° West 446 513 40,000  Level Memphis Center
Wed 03:30:45 PM 34.5094 -92.8297 253° West 441 507 40,000  Level Memphis Center
Wed 03:31:45 PM 34.4689 -92.9694 251° West 441 507 40,000  Level Memphis Center
Wed 03:32:45 PM 34.4325 -93.1144 253° West 441 507 40,000  Level Memphis Center
Wed 03:33:45 PM 34.3936 -93.2567 252° West 447 514 40,000  Level Memphis Center
Wed 03:34:45 PM 34.3547 -93.4014 252° West 447 514 40,000  Level Memphis Center
Wed 03:35:45 PM 34.3158 -93.5458 252° West 447 514 40,000  Level Memphis Center
Wed 03:36:18 PM 34.2917 -93.6331 251° West 450 518 40,000  Level Fort Worth Center
Wed 03:37:18 PM 34.2522 -93.7753 251° West 455 524 40,000  Level Fort Worth Center
Wed 03:38:18 PM 34.2161 -93.9050 251° West 450 518 40,000  Level Fort Worth Center
Wed 03:39:18 PM 34.1678 -94.0425 247° West 450 518 40,000 -533 Level Fort Worth Center
Wed 03:41:18 PM 34.0622 -94.3197 245° Southwest 455 524 38,400 -1,000 Descending Fort Worth Center
Wed 03:42:18 PM 34.0072 -94.4594 245° Southwest 455 524 37,000 -1,450 Descending Fort Worth Center
Wed 03:43:18 PM 33.9558 -94.5914 245° Southwest 455 524 35,500 -1,500 Descending Fort Worth Center
Wed 03:45:18 PM 33.8492 -94.8675 245° Southwest 453 521 32,500 -1,500 Descending Fort Worth Center
Wed 03:46:18 PM 33.7936 -95.0067 244° Southwest 453 521 31,000 -1,500 Descending Fort Worth Center
Wed 03:47:18 PM 33.7356 -95.1506 244° Southwest 465 535 29,500 -1,686 Descending Fort Worth Center
Wed 03:48:19 PM 33.6817 -95.2917 245° Southwest 470 541 27,600 -1,950 Descending Fort Worth Center
Wed 03:49:18 PM 33.6275 -95.4278 244° Southwest 463 533 25,600 -2,118 Descending Fort Worth Center
Wed 03:50:18 PM 33.5733 -95.5611 244° Southwest 457 526 23,400 -2,400 Descending Fort Worth Center
Wed 03:51:18 PM 33.5169 -95.7017 244° Southwest 432 497 20,800 -2,350 Descending Fort Worth Center
Wed 03:52:18 PM 33.4725 -95.8147 245° Southwest 423 487 18,700 -2,250 Descending Fort Worth Center
Wed 03:53:18 PM 33.4219 -95.9450 245° Southwest 413 475 16,300 -2,182 Descending Fort Worth Center
Wed 03:54:19 PM 33.3792 -96.0478 244° Southwest 397 457 14,300 -2,100 Descending Fort Worth Center
Wed 03:55:18 PM 33.3303 -96.1653 244° Southwest 376 433 12,100 -1,916 Descending Fort Worth Center
Wed 03:56:18 PM 33.2956 -96.2553 245° Southwest 346 398 10,500 -1,587 Descending Fort Worth Center
Wed 03:57:19 PM 33.2506 -96.3528 241° Southwest 314 361 8,900 -1,500 Descending Fort Worth Center
Wed 03:58:18 PM 33.2072 -96.4203 233° Southwest 298 343 7,500 -1,513 Descending Fort Worth Center
Wed 03:59:18 PM 33.1578 -96.5053 235° Southwest 286 329 5,900 -1,240 Descending Fort Worth Center
Wed 04:00:19 PM 33.1208 -96.5850 241° Southwest 281 323 5,000 -450 Descending Fort Worth Center
Wed 04:01:18 PM 33.0839 -96.6672 242° Southwest 281 323 5,000  Level Fort Worth Center
Wed 04:01:48 PM 33.0667 -96.7000 238° Southwest 275 316 5,000 -533 Level Dallas / Fort Worth TRACON
Wed 04:02:48 PM 33.0333 -96.7833 245° Southwest 279 321 4,200 -950 Descending Dallas / Fort Worth TRACON
Wed 04:03:48 PM 33.0000 -96.8500 239° Southwest 246 283 3,100 -737 Descending Dallas / Fort Worth TRACON
Wed 04:04:42 PM 32.9500 -96.9000 220° Southwest 182 209 2,800 -579 Descending Dallas / Fort Worth TRACON
Wed 04:05:42 PM 32.9167 -96.9167 203° Southwest 175 201 2,000 -750 Descending Dallas / Fort Worth TRACON
Wed 04:06:42 PM 32.8833 -96.8833 140° Southeast 158 182 1,300 -346 Descending Dallas / Fort Worth TRACON
Wed 04:08:18 PM 32.7547 -96.8428 165° South 152 175 1,100 -77 Descending Fort Worth Center
Wed 04:09:18 PM 32.7903 -96.8375 North 92 106 1,100  Level Fort Worth Center
Wed 04:11:00 PM 32.8333 -96.8500 350° North  Level FlightAware Approximate
Wed 04:18:00 PM 32.8471 -96.8518 350° North  Level Estimated
Wed 04:19:00 PM 32.8471 -96.8518 350° North  Level Estimated

Login

Don't have an account? Register now (free) for customized features, flight alerts, and more!